sensor_id;sensor_type;location;lat;lon;timestamp;pressure;altitude;pressure_sealevel;temperature;humidity
75359;BME280;64046;51.978;5.934;2023-12-20T00:01:38;101424.97;;;11.89;98.89
75359;BME280;64046;51.978;5.934;2023-12-20T00:04:08;101408.06;;;11.96;98.36
75359;BME280;64046;51.978;5.934;2023-12-20T00:06:38;101410.91;;;11.90;98.21
75359;BME280;64046;51.978;5.934;2023-12-20T00:09:17;101408.56;;;12.06;97.90
75359;BME280;64046;51.978;5.934;2023-12-20T00:11:51;101419.06;;;12.06;97.82
75359;BME280;64046;51.978;5.934;2023-12-20T00:14:26;101407.72;;;12.05;97.90
75359;BME280;64046;51.978;5.934;2023-12-20T00:16:56;101414.47;;;11.89;98.25
75359;BME280;64046;51.978;5.934;2023-12-20T00:19:36;101411.31;;;12.03;97.88
75359;BME280;64046;51.978;5.934;2023-12-20T00:22:08;101413.94;;;12.03;97.61
75359;BME280;64046;51.978;5.934;2023-12-20T00:24:42;101417.34;;;11.83;98.19
75359;BME280;64046;51.978;5.934;2023-12-20T00:27:16;101418.41;;;12.01;97.65
75359;BME280;64046;51.978;5.934;2023-12-20T00:29:50;101404.66;;;11.94;98.12
75359;BME280;64046;51.978;5.934;2023-12-20T00:32:27;101392.06;;;11.80;98.39
75359;BME280;64046;51.978;5.934;2023-12-20T00:35:04;101401.91;;;11.97;98.10
75359;BME280;64046;51.978;5.934;2023-12-20T00:37:38;101395.69;;;12.00;97.80
75359;BME280;64046;51.978;5.934;2023-12-20T00:40:10;101402.81;;;11.96;98.08
75359;BME280;64046;51.978;5.934;2023-12-20T00:42:48;101396.78;;;11.94;97.62
75359;BME280;64046;51.978;5.934;2023-12-20T00:45:21;101407.53;;;11.88;98.33
75359;BME280;64046;51.978;5.934;2023-12-20T00:47:51;101409.84;;;11.73;98.37
75359;BME280;64046;51.978;5.934;2023-12-20T00:50:21;101413.25;;;11.75;98.17
75359;BME280;64046;51.978;5.934;2023-12-20T00:52:55;101407.53;;;11.88;97.98
75359;BME280;64046;51.978;5.934;2023-12-20T00:55:28;101415.34;;;11.89;97.85
75359;BME280;64046;51.978;5.934;2023-12-20T00:58:03;101400.28;;;11.93;97.74
75359;BME280;64046;51.978;5.934;2023-12-20T01:00:34;101402.63;;;11.78;98.09
75359;BME280;64046;51.978;5.934;2023-12-20T01:03:05;101401.59;;;11.83;97.97
75359;BME280;64046;51.978;5.934;2023-12-20T01:05:36;101412.22;;;12.02;97.64
75359;BME280;64046;51.978;5.934;2023-12-20T01:08:06;101389.78;;;11.93;97.84
75359;BME280;64046;51.978;5.934;2023-12-20T01:10:35;101403.38;;;11.82;98.15
75359;BME280;64046;51.978;5.934;2023-12-20T01:13:10;101407.84;;;12.02;97.52
75359;BME280;64046;51.978;5.934;2023-12-20T01:15:40;101398.13;;;11.82;97.38
75359;BME280;64046;51.978;5.934;2023-12-20T01:18:11;101392.25;;;11.75;97.54
75359;BME280;64046;51.978;5.934;2023-12-20T01:20:44;101395.00;;;11.72;97.50
75359;BME280;64046;51.978;5.934;2023-12-20T01:23:16;101394.44;;;11.64;97.32
75359;BME280;64046;51.978;5.934;2023-12-20T01:25:47;101397.31;;;11.58;97.21
75359;BME280;64046;51.978;5.934;2023-12-20T01:28:23;101401.28;;;11.68;96.93
75359;BME280;64046;51.978;5.934;2023-12-20T01:30:52;101399.63;;;11.43;97.42
75359;BME280;64046;51.978;5.934;2023-12-20T01:33:26;101394.88;;;11.53;97.37
75359;BME280;64046;51.978;5.934;2023-12-20T01:35:57;101397.41;;;11.33;97.56
75359;BME280;64046;51.978;5.934;2023-12-20T01:38:28;101401.09;;;11.27;97.66
75359;BME280;64046;51.978;5.934;2023-12-20T01:40:59;101392.91;;;11.36;97.60
75359;BME280;64046;51.978;5.934;2023-12-20T01:43:33;101392.09;;;11.34;97.03
75359;BME280;64046;51.978;5.934;2023-12-20T01:46:04;101395.25;;;11.20;97.58
75359;BME280;64046;51.978;5.934;2023-12-20T01:48:37;101402.66;;;11.33;97.29
75359;BME280;64046;51.978;5.934;2023-12-20T01:51:07;101395.25;;;11.20;97.33
75359;BME280;64046;51.978;5.934;2023-12-20T01:53:38;101400.50;;;11.20;97.20
75359;BME280;64046;51.978;5.934;2023-12-20T01:56:19;101406.72;;;11.18;97.41
75359;BME280;64046;51.978;5.934;2023-12-20T01:58:54;101406.66;;;11.19;97.16
75359;BME280;64046;51.978;5.934;2023-12-20T02:01:28;101410.63;;;11.06;97.47
75359;BME280;64046;51.978;5.934;2023-12-20T02:03:59;101404.47;;;11.07;97.67
75359;BME280;64046;51.978;5.934;2023-12-20T02:06:31;101406.81;;;10.91;98.06
75359;BME280;64046;51.978;5.934;2023-12-20T02:09:07;101403.63;;;11.06;97.52
75359;BME280;64046;51.978;5.934;2023-12-20T02:11:45;101406.75;;;10.93;97.67
75359;BME280;64046;51.978;5.934;2023-12-20T02:14:18;101399.00;;;11.13;97.09
75359;BME280;64046;51.978;5.934;2023-12-20T02:16:48;101405.66;;;10.98;96.98
75359;BME280;64046;51.978;5.934;2023-12-20T02:19:22;101416.97;;;11.24;96.37
75359;BME280;64046;51.978;5.934;2023-12-20T02:22:11;101407.03;;;11.32;95.28
75359;BME280;64046;51.978;5.934;2023-12-20T02:24:46;101401.41;;;11.19;96.29
75359;BME280;64046;51.978;5.934;2023-12-20T02:27:18;101403.06;;;11.22;96.58
75359;BME280;64046;51.978;5.934;2023-12-20T02:29:51;101398.78;;;11.19;96.53
75359;BME280;64046;51.978;5.934;2023-12-20T02:32:23;101397.13;;;11.17;96.61
75359;BME280;64046;51.978;5.934;2023-12-20T02:35:02;101400.84;;;11.35;95.89
75359;BME280;64046;51.978;5.934;2023-12-20T02:37:46;101400.78;;;11.36;95.77
75359;BME280;64046;51.978;5.934;2023-12-20T02:40:18;101394.66;;;11.36;96.08
75359;BME280;64046;51.978;5.934;2023-12-20T02:42:49;101397.28;;;11.36;96.04
75359;BME280;64046;51.978;5.934;2023-12-20T02:45:18;101392.50;;;11.23;96.13
75359;BME280;64046;51.978;5.934;2023-12-20T02:47:57;101386.66;;;11.39;95.95
75359;BME280;64046;51.978;5.934;2023-12-20T02:50:29;101381.97;;;11.25;96.19
75359;BME280;64046;51.978;5.934;2023-12-20T02:53:04;101373.19;;;11.48;95.19
75359;BME280;64046;51.978;5.934;2023-12-20T02:55:36;101377.25;;;11.33;96.34
75359;BME280;64046;51.978;5.934;2023-12-20T02:58:09;101371.09;;;11.34;96.47
75359;BME280;64046;51.978;5.934;2023-12-20T03:00:39;101364.81;;;11.38;96.15
75359;BME280;64046;51.978;5.934;2023-12-20T03:03:15;101369.75;;;11.46;96.13
75359;BME280;64046;51.978;5.934;2023-12-20T03:05:45;101373.97;;;11.50;96.52
75359;BME280;64046;51.978;5.934;2023-12-20T03:08:23;101366.97;;;11.73;95.48
75359;BME280;64046;51.978;5.934;2023-12-20T03:10:55;101370.56;;;11.48;96.28
75359;BME280;64046;51.978;5.934;2023-12-20T03:13:24;101371.41;;;11.49;96.26
75359;BME280;64046;51.978;5.934;2023-12-20T03:15:58;101365.38;;;11.47;96.62
75359;BME280;64046;51.978;5.934;2023-12-20T03:18:30;101368.00;;;11.47;96.52
75359;BME280;64046;51.978;5.934;2023-12-20T03:21:01;101361.72;;;11.51;96.37
75359;BME280;64046;51.978;5.934;2023-12-20T03:23:36;101352.63;;;11.59;96.18
75359;BME280;64046;51.978;5.934;2023-12-20T03:26:08;101365.25;;;11.50;96.44
75359;BME280;64046;51.978;5.934;2023-12-20T03:28:40;101358.97;;;11.54;96.23
75359;BME280;64046;51.978;5.934;2023-12-20T03:31:10;101350.84;;;11.38;96.42
75359;BME280;64046;51.978;5.934;2023-12-20T03:33:41;101351.94;;;11.32;96.20
75359;BME280;64046;51.978;5.934;2023-12-20T03:36:10;101348.63;;;11.27;96.47
75359;BME280;64046;51.978;5.934;2023-12-20T03:38:43;101345.28;;;11.46;95.99
75359;BME280;64046;51.978;5.934;2023-12-20T03:41:16;101343.94;;;11.35;96.28
75359;BME280;64046;51.978;5.934;2023-12-20T03:43:45;101349.25;;;11.34;96.25
75359;BME280;64046;51.978;5.934;2023-12-20T03:46:17;101349.25;;;11.34;96.12
75359;BME280;64046;51.978;5.934;2023-12-20T03:48:48;101344.38;;;11.47;96.15
75359;BME280;64046;51.978;5.934;2023-12-20T03:51:19;101348.22;;;11.38;96.04
75359;BME280;64046;51.978;5.934;2023-12-20T03:53:51;101339.75;;;11.53;95.72
75359;BME280;64046;51.978;5.934;2023-12-20T03:56:23;101351.63;;;11.40;96.05
75359;BME280;64046;51.978;5.934;2023-12-20T03:58:52;101355.22;;;11.37;95.96
75359;BME280;64046;51.978;5.934;2023-12-20T04:01:24;101349.97;;;11.37;96.22
75359;BME280;64046;51.978;5.934;2023-12-20T04:03:55;101346.94;;;11.48;95.83
75359;BME280;64046;51.978;5.934;2023-12-20T04:06:32;101349.31;;;11.54;95.27
75359;BME280;64046;51.978;5.934;2023-12-20T04:09:07;101346.75;;;11.53;95.16
75359;BME280;64046;51.978;5.934;2023-12-20T04:11:38;101343.31;;;11.29;95.88
75359;BME280;64046;51.978;5.934;2023-12-20T04:14:09;101338.09;;;11.29;95.90
75359;BME280;64046;51.978;5.934;2023-12-20T04:16:41;101342.53;;;11.27;95.93
75359;BME280;64046;51.978;5.934;2023-12-20T04:19:10;101347.34;;;11.37;96.14
75359;BME280;64046;51.978;5.934;2023-12-20T04:21:40;101344.78;;;11.36;95.79
75359;BME280;64046;51.978;5.934;2023-12-20T04:24:13;101350.13;;;11.56;95.17
75359;BME280;64046;51.978;5.934;2023-12-20T04:26:44;101337.91;;;11.33;95.57
75359;BME280;64046;51.978;5.934;2023-12-20T04:29:14;101345.75;;;11.33;95.45
75359;BME280;64046;51.978;5.934;2023-12-20T04:31:47;101339.50;;;11.37;95.63
75359;BME280;64046;51.978;5.934;2023-12-20T04:34:18;101337.81;;;11.36;95.52
75359;BME280;64046;51.978;5.934;2023-12-20T04:36:50;101352.66;;;11.36;95.29
75359;BME280;64046;51.978;5.934;2023-12-20T04:39:22;101354.81;;;11.48;95.19
75359;BME280;64046;51.978;5.934;2023-12-20T04:41:52;101345.22;;;11.47;95.32
75359;BME280;64046;51.978;5.934;2023-12-20T04:44:27;101341.38;;;11.56;95.16
75359;BME280;64046;51.978;5.934;2023-12-20T04:46:57;101347.00;;;11.47;95.11
75359;BME280;64046;51.978;5.934;2023-12-20T04:49:29;101343.47;;;11.48;94.88
75359;BME280;64046;51.978;5.934;2023-12-20T04:51:59;101346.94;;;11.48;94.75
75359;BME280;64046;51.978;5.934;2023-12-20T04:54:33;101340.09;;;11.66;94.57
75359;BME280;64046;51.978;5.934;2023-12-20T04:57:04;101344.63;;;11.63;94.69
75359;BME280;64046;51.978;5.934;2023-12-20T04:59:34;101346.28;;;11.65;94.55
75359;BME280;64046;51.978;5.934;2023-12-20T05:02:05;101345.25;;;11.69;94.16
75359;BME280;64046;51.978;5.934;2023-12-20T05:04:34;101337.84;;;11.57;94.54
75359;BME280;64046;51.978;5.934;2023-12-20T05:07:07;101336.63;;;11.66;94.28
75359;BME280;64046;51.978;5.934;2023-12-20T05:09:43;101333.44;;;11.80;93.97
75359;BME280;64046;51.978;5.934;2023-12-20T05:12:13;101335.66;;;11.68;94.41
75359;BME280;64046;51.978;5.934;2023-12-20T05:14:43;101319.84;;;11.70;94.29
75359;BME280;64046;51.978;5.934;2023-12-20T05:17:15;101318.34;;;11.85;93.93
75359;BME280;64046;51.978;5.934;2023-12-20T05:19:47;101314.44;;;11.73;93.92
75359;BME280;64046;51.978;5.934;2023-12-20T05:22:19;101313.75;;;11.90;93.29
75359;BME280;64046;51.978;5.934;2023-12-20T05:24:51;101315.59;;;11.88;93.42
75359;BME280;64046;51.978;5.934;2023-12-20T05:27:23;101305.88;;;11.69;93.80
75359;BME280;64046;51.978;5.934;2023-12-20T05:29:55;101316.03;;;11.77;93.61
75359;BME280;64046;51.978;5.934;2023-12-20T05:32:28;101314.03;;;11.84;93.41
75359;BME280;64046;51.978;5.934;2023-12-20T05:34:57;101318.31;;;11.64;93.91
75359;BME280;64046;51.978;5.934;2023-12-20T05:37:27;101313.06;;;11.64;94.00
75359;BME280;64046;51.978;5.934;2023-12-20T05:40:02;101319.28;;;11.84;93.42
75359;BME280;64046;51.978;5.934;2023-12-20T05:42:33;101322.03;;;11.81;93.44
75359;BME280;64046;51.978;5.934;2023-12-20T05:45:03;101330.41;;;11.68;93.58
75359;BME280;64046;51.978;5.934;2023-12-20T05:47:35;101327.84;;;11.67;93.39
75359;BME280;64046;51.978;5.934;2023-12-20T05:50:05;101336.44;;;11.70;93.41
75359;BME280;64046;51.978;5.934;2023-12-20T05:52:39;101337.78;;;11.81;93.06
75359;BME280;64046;51.978;5.934;2023-12-20T05:55:12;101343.75;;;11.84;92.67
75359;BME280;64046;51.978;5.934;2023-12-20T05:57:43;101341.03;;;11.65;93.19
75359;BME280;64046;51.978;5.934;2023-12-20T06:00:16;101343.75;;;11.84;92.71
75359;BME280;64046;51.978;5.934;2023-12-20T06:02:48;101353.13;;;11.69;93.00
75359;BME280;64046;51.978;5.934;2023-12-20T06:05:20;101345.25;;;11.69;92.93
75359;BME280;64046;51.978;5.934;2023-12-20T06:07:49;101348.31;;;11.79;92.67
75359;BME280;64046;51.978;5.934;2023-12-20T06:10:22;101340.22;;;11.85;92.55
75359;BME280;64046;51.978;5.934;2023-12-20T06:12:54;101339.19;;;11.67;92.95
75359;BME280;64046;51.978;5.934;2023-12-20T06:15:29;101335.03;;;11.84;92.54
75359;BME280;64046;51.978;5.934;2023-12-20T06:17:59;101337.31;;;11.71;92.89
75359;BME280;64046;51.978;5.934;2023-12-20T06:20:32;101335.69;;;11.89;92.56
75359;BME280;64046;51.978;5.934;2023-12-20T06:23:03;101333.94;;;11.89;92.43
75359;BME280;64046;51.978;5.934;2023-12-20T06:25:39;101335.47;;;11.95;92.11
75359;BME280;64046;51.978;5.934;2023-12-20T06:28:09;101336.97;;;11.78;92.58
75359;BME280;64046;51.978;5.934;2023-12-20T06:30:40;101330.75;;;11.81;92.49
75359;BME280;64046;51.978;5.934;2023-12-20T06:33:17;101324.56;;;12.04;91.60
75359;BME280;64046;51.978;5.934;2023-12-20T06:35:50;101327.53;;;11.97;91.88
75359;BME280;64046;51.978;5.934;2023-12-20T06:38:20;101319.44;;;11.79;91.87
75359;BME280;64046;51.978;5.934;2023-12-20T06:40:53;101326.66;;;11.96;91.52
75359;BME280;64046;51.978;5.934;2023-12-20T06:43:23;101321.91;;;11.84;91.71
75359;BME280;64046;51.978;5.934;2023-12-20T06:45:56;101323.28;;;11.92;91.33
75359;BME280;64046;51.978;5.934;2023-12-20T06:48:26;101321.22;;;11.78;91.60
75359;BME280;64046;51.978;5.934;2023-12-20T06:50:59;101324.13;;;11.93;91.29
75359;BME280;64046;51.978;5.934;2023-12-20T06:53:32;101318.16;;;11.89;91.35
75359;BME280;64046;51.978;5.934;2023-12-20T06:56:04;101324.69;;;12.01;90.78
75359;BME280;64046;51.978;5.934;2023-12-20T06:58:35;101321.78;;;11.87;91.09
75359;BME280;64046;51.978;5.934;2023-12-20T07:01:04;101311.41;;;11.84;91.07
75359;BME280;64046;51.978;5.934;2023-12-20T07:03:36;101316.81;;;12.01;90.71
75359;BME280;64046;51.978;5.934;2023-12-20T07:06:09;101306.38;;;12.00;90.43
75359;BME280;64046;51.978;5.934;2023-12-20T07:08:39;101305.88;;;11.90;90.53
75359;BME280;64046;51.978;5.934;2023-12-20T07:11:21;101306.19;;;12.04;89.45
75359;BME280;64046;51.978;5.934;2023-12-20T07:13:51;101301.88;;;11.81;90.32
75359;BME280;64046;51.978;5.934;2023-12-20T07:16:21;101307.19;;;11.80;90.59
75359;BME280;64046;51.978;5.934;2023-12-20T07:18:51;101300.09;;;11.82;90.46
75359;BME280;64046;51.978;5.934;2023-12-20T07:21:22;101302.00;;;11.78;90.71
75359;BME280;64046;51.978;5.934;2023-12-20T07:23:51;101304.63;;;11.78;90.61
75359;BME280;64046;51.978;5.934;2023-12-20T07:26:25;101304.66;;;11.99;90.13
75359;BME280;64046;51.978;5.934;2023-12-20T07:28:56;101307.19;;;11.80;90.90
75359;BME280;64046;51.978;5.934;2023-12-20T07:31:28;101307.91;;;11.83;90.70
75359;BME280;64046;51.978;5.934;2023-12-20T07:34:00;101310.34;;;11.88;90.70
75359;BME280;64046;51.978;5.934;2023-12-20T07:36:34;101311.41;;;11.84;90.68
75359;BME280;64046;51.978;5.934;2023-12-20T07:39:06;101308.75;;;12.06;90.45
75359;BME280;64046;51.978;5.934;2023-12-20T07:41:38;101304.28;;;12.08;90.17
75359;BME280;64046;51.978;5.934;2023-12-20T07:44:18;101309.00;;;12.20;89.59
75359;BME280;64046;51.978;5.934;2023-12-20T07:46:47;101309.16;;;11.97;90.52
75359;BME280;64046;51.978;5.934;2023-12-20T07:49:17;101299.41;;;11.99;90.39
75359;BME280;64046;51.978;5.934;2023-12-20T07:51:49;101305.91;;;12.10;90.43
75359;BME280;64046;51.978;5.934;2023-12-20T07:54:43;101303.44;;;12.28;89.14
75359;BME280;64046;51.978;5.934;2023-12-20T07:57:16;101296.91;;;12.16;90.04
75359;BME280;64046;51.978;5.934;2023-12-20T07:59:48;101314.38;;;12.17;90.13
75359;BME280;64046;51.978;5.934;2023-12-20T08:02:24;101315.97;;;12.21;90.00
75359;BME280;64046;51.978;5.934;2023-12-20T08:04:53;101328.78;;;12.08;90.17
75359;BME280;64046;51.978;5.934;2023-12-20T08:07:23;101328.78;;;12.08;89.96
75359;BME280;64046;51.978;5.934;2023-12-20T08:09:55;101327.13;;;12.06;90.28
75359;BME280;64046;51.978;5.934;2023-12-20T08:12:29;101326.28;;;12.26;89.90
75359;BME280;64046;51.978;5.934;2023-12-20T08:15:01;101326.81;;;12.14;89.91
75359;BME280;64046;51.978;5.934;2023-12-20T08:17:33;101327.59;;;12.16;89.85
75359;BME280;64046;51.978;5.934;2023-12-20T08:20:05;101327.38;;;12.20;89.91
75359;BME280;64046;51.978;5.934;2023-12-20T08:22:34;101325.03;;;12.14;89.85
75359;BME280;64046;51.978;5.934;2023-12-20T08:25:05;101319.50;;;12.20;89.97
75359;BME280;64046;51.978;5.934;2023-12-20T08:27:39;101317.00;;;12.38;89.26
75359;BME280;64046;51.978;5.934;2023-12-20T08:30:10;101325.38;;;12.27;89.63
75359;BME280;64046;51.978;5.934;2023-12-20T08:32:39;101312.75;;;12.15;89.59
75359;BME280;64046;51.978;5.934;2023-12-20T08:35:11;101312.16;;;12.28;89.36
75359;BME280;64046;51.978;5.934;2023-12-20T08:37:42;101308.63;;;12.29;89.48
75359;BME280;64046;51.978;5.934;2023-12-20T08:40:13;101300.41;;;12.17;89.79
75359;BME280;64046;51.978;5.934;2023-12-20T08:42:47;101301.28;;;12.36;89.27
75359;BME280;64046;51.978;5.934;2023-12-20T08:45:18;101302.91;;;12.20;89.60
75359;BME280;64046;51.978;5.934;2023-12-20T08:47:48;101298.75;;;12.14;90.24
75359;BME280;64046;51.978;5.934;2023-12-20T08:50:19;101300.19;;;12.21;89.89
75359;BME280;64046;51.978;5.934;2023-12-20T08:52:56;101298.97;;;12.49;88.94
75359;BME280;64046;51.978;5.934;2023-12-20T08:55:25;101300.81;;;12.28;89.64
75359;BME280;64046;51.978;5.934;2023-12-20T08:58:06;101295.56;;;12.47;89.37
75359;BME280;64046;51.978;5.934;2023-12-20T09:00:35;101286.03;;;12.25;90.04
75359;BME280;64046;51.978;5.934;2023-12-20T09:03:07;101296.78;;;12.40;90.02
75359;BME280;64046;51.978;5.934;2023-12-20T09:05:40;101293.22;;;12.41;89.95
75359;BME280;64046;51.978;5.934;2023-12-20T09:08:11;101290.47;;;12.23;90.63
75359;BME280;64046;51.978;5.934;2023-12-20T09:10:41;101289.75;;;12.20;90.93
75359;BME280;64046;51.978;5.934;2023-12-20T09:13:14;101290.16;;;12.31;90.79
75359;BME280;64046;51.978;5.934;2023-12-20T09:15:49;101295.41;;;12.31;91.25
75359;BME280;64046;51.978;5.934;2023-12-20T09:18:22;101290.22;;;12.29;91.74
75359;BME280;64046;51.978;5.934;2023-12-20T09:20:54;101286.66;;;12.31;91.63
75359;BME280;64046;51.978;5.934;2023-12-20T09:23:26;101288.31;;;12.13;92.55
75359;BME280;64046;51.978;5.934;2023-12-20T09:25:56;101290.06;;;12.12;93.00
75359;BME280;64046;51.978;5.934;2023-12-20T09:28:30;101297.06;;;12.34;92.90
75359;BME280;64046;51.978;5.934;2023-12-20T09:31:04;101290.41;;;12.25;93.78
75359;BME280;64046;51.978;5.934;2023-12-20T09:33:36;101299.00;;;12.28;94.00
75359;BME280;64046;51.978;5.934;2023-12-20T09:36:14;101297.16;;;12.31;94.15
75359;BME280;64046;51.978;5.934;2023-12-20T09:39:02;101301.59;;;12.09;95.42
75359;BME280;64046;51.978;5.934;2023-12-20T09:41:36;101296.72;;;12.21;95.83
75359;BME280;64046;51.978;5.934;2023-12-20T09:44:13;101292.47;;;12.18;96.31
75359;BME280;64046;51.978;5.934;2023-12-20T09:46:49;101290.81;;;12.16;96.85
75359;BME280;64046;51.978;5.934;2023-12-20T09:49:21;101293.13;;;12.03;97.75
75359;BME280;64046;51.978;5.934;2023-12-20T09:51:54;101281.28;;;12.13;97.88
75359;BME280;64046;51.978;5.934;2023-12-20T09:54:28;101291.03;;;12.11;98.16
75359;BME280;64046;51.978;5.934;2023-12-20T09:57:01;101295.03;;;12.20;98.33
75359;BME280;64046;51.978;5.934;2023-12-20T09:59:33;101296.72;;;12.21;98.42
75359;BME280;64046;51.978;5.934;2023-12-20T10:02:09;101298.03;;;12.31;98.11
75359;BME280;64046;51.978;5.934;2023-12-20T10:04:46;101297.81;;;12.36;97.92
75359;BME280;64046;51.978;5.934;2023-12-20T10:07:18;101314.25;;;12.20;98.52
75359;BME280;64046;51.978;5.934;2023-12-20T10:09:47;101312.84;;;12.32;98.04
75359;BME280;64046;51.978;5.934;2023-12-20T10:12:16;101304.72;;;12.18;98.52
75359;BME280;64046;51.978;5.934;2023-12-20T10:14:49;101309.97;;;12.38;97.94
75359;BME280;64046;51.978;5.934;2023-12-20T10:17:18;101312.22;;;12.27;98.25
75359;BME280;64046;51.978;5.934;2023-12-20T10:19:47;101319.84;;;12.33;97.97
75359;BME280;64046;51.978;5.934;2023-12-20T10:22:17;101317.78;;;12.40;97.98
75359;BME280;64046;51.978;5.934;2023-12-20T10:24:49;101321.25;;;12.40;97.75
75359;BME280;64046;51.978;5.934;2023-12-20T10:27:19;101323.75;;;12.43;97.70
75359;BME280;64046;51.978;5.934;2023-12-20T10:29:52;101321.13;;;12.64;97.44
75359;BME280;64046;51.978;5.934;2023-12-20T10:32:23;101314.06;;;12.64;97.56
75359;BME280;64046;51.978;5.934;2023-12-20T10:34:55;101303.84;;;12.77;97.10
75359;BME280;64046;51.978;5.934;2023-12-20T10:37:27;101304.34;;;12.67;97.32
75359;BME280;64046;51.978;5.934;2023-12-20T10:40:00;101309.41;;;12.90;96.64
75359;BME280;64046;51.978;5.934;2023-12-20T10:42:36;101297.38;;;12.85;97.09
75359;BME280;64046;51.978;5.934;2023-12-20T10:45:09;101295.84;;;13.00;96.73
75359;BME280;64046;51.978;5.934;2023-12-20T10:47:39;101295.63;;;12.85;96.73
75359;BME280;64046;51.978;5.934;2023-12-20T10:50:12;101291.63;;;12.95;96.86
75359;BME280;64046;51.978;5.934;2023-12-20T10:52:42;101290.44;;;13.03;96.81
75359;BME280;64046;51.978;5.934;2023-12-20T10:55:13;101287.06;;;12.99;97.01
75359;BME280;64046;51.978;5.934;2023-12-20T10:57:45;101292.53;;;13.13;96.55
75359;BME280;64046;51.978;5.934;2023-12-20T11:00:21;101280.16;;;13.15;96.53
75359;BME280;64046;51.978;5.934;2023-12-20T11:02:53;101295.47;;;13.07;97.04
75359;BME280;64046;51.978;5.934;2023-12-20T11:05:33;101285.28;;;13.19;96.10
75359;BME280;64046;51.978;5.934;2023-12-20T11:08:12;101285.34;;;13.17;96.26
75359;BME280;64046;51.978;5.934;2023-12-20T11:10:49;101285.13;;;13.22;96.02
75359;BME280;64046;51.978;5.934;2023-12-20T11:13:27;101277.53;;;13.15;97.16
75359;BME280;64046;51.978;5.934;2023-12-20T11:16:06;101275.25;;;13.27;96.31
75359;BME280;64046;51.978;5.934;2023-12-20T11:18:36;101280.31;;;13.12;96.19
75359;BME280;64046;51.978;5.934;2023-12-20T11:21:06;101280.25;;;13.14;95.97
75359;BME280;64046;51.978;5.934;2023-12-20T11:23:35;101267.38;;;13.08;95.76
75359;BME280;64046;51.978;5.934;2023-12-20T11:26:13;101264.00;;;13.23;94.90
75359;BME280;64046;51.978;5.934;2023-12-20T11:28:51;101258.22;;;12.97;95.92
75359;BME280;64046;51.978;5.934;2023-12-20T11:31:23;101256.50;;;13.15;95.52
75359;BME280;64046;51.978;5.934;2023-12-20T11:34:13;101250.69;;;13.26;94.43
75359;BME280;64046;51.978;5.934;2023-12-20T11:36:43;101253.75;;;13.00;95.76
75359;BME280;64046;51.978;5.934;2023-12-20T11:39:18;101242.94;;;13.23;95.29
75359;BME280;64046;51.978;5.934;2023-12-20T11:41:50;101243.53;;;13.11;95.73
75359;BME280;64046;51.978;5.934;2023-12-20T11:44:22;101234.91;;;13.26;95.63
75359;BME280;64046;51.978;5.934;2023-12-20T11:46:55;101233.63;;;13.35;95.39
75359;BME280;64046;51.978;5.934;2023-12-20T11:49:24;101241.16;;;13.24;95.67
75359;BME280;64046;51.978;5.934;2023-12-20T11:51:55;101242.63;;;13.29;95.38
75359;BME280;64046;51.978;5.934;2023-12-20T11:54:37;101250.41;;;13.32;95.32
75359;BME280;64046;51.978;5.934;2023-12-20T11:57:07;101256.47;;;13.35;95.36
75359;BME280;64046;51.978;5.934;2023-12-20T11:59:37;101250.22;;;13.37;95.30
75359;BME280;64046;51.978;5.934;2023-12-20T12:02:17;101247.44;;;13.58;94.61
75359;BME280;64046;51.978;5.934;2023-12-20T12:04:53;101239.78;;;13.53;94.75
75359;BME280;64046;51.978;5.934;2023-12-20T12:07:26;101247.66;;;13.53;95.04
75359;BME280;64046;51.978;5.934;2023-12-20T12:09:56;101240.28;;;13.42;95.00
75359;BME280;64046;51.978;5.934;2023-12-20T12:12:28;101223.06;;;13.54;94.98
75359;BME280;64046;51.978;5.934;2023-12-20T12:15:01;101228.31;;;13.54;94.45
75359;BME280;64046;51.978;5.934;2023-12-20T12:17:34;101218.84;;;13.67;94.02
75359;BME280;64046;51.978;5.934;2023-12-20T12:20:07;101218.16;;;13.64;94.09
75359;BME280;64046;51.978;5.934;2023-12-20T12:22:36;101214.38;;;13.52;93.57
75359;BME280;64046;51.978;5.934;2023-12-20T12:25:12;101216.69;;;13.76;91.66
75359;BME280;64046;51.978;5.934;2023-12-20T12:27:43;101215.59;;;13.62;91.50
75359;BME280;64046;51.978;5.934;2023-12-20T12:30:20;101214.81;;;13.78;88.92
75359;BME280;64046;51.978;5.934;2023-12-20T12:32:53;101217.69;;;13.73;88.47
75359;BME280;64046;51.978;5.934;2023-12-20T12:35:24;101210.88;;;13.69;88.07
75359;BME280;64046;51.978;5.934;2023-12-20T12:37:55;101200.19;;;13.55;87.78
75359;BME280;64046;51.978;5.934;2023-12-20T12:40:35;101199.25;;;13.73;86.97
75359;BME280;64046;51.978;5.934;2023-12-20T12:43:05;101191.47;;;13.54;87.34
75359;BME280;64046;51.978;5.934;2023-12-20T12:45:34;101186.13;;;13.56;87.32
75359;BME280;64046;51.978;5.934;2023-12-20T12:48:07;101174.56;;;13.76;87.35
75359;BME280;64046;51.978;5.934;2023-12-20T12:50:36;101172.53;;;13.63;88.23
75359;BME280;64046;51.978;5.934;2023-12-20T12:53:15;101178.91;;;13.59;89.11
75359;BME280;64046;51.978;5.934;2023-12-20T12:55:44;101178.38;;;13.53;90.66
75359;BME280;64046;51.978;5.934;2023-12-20T12:58:15;101173.88;;;13.55;90.11
75359;BME280;64046;51.978;5.934;2023-12-20T13:00:52;101170.41;;;13.54;90.50
75359;BME280;64046;51.978;5.934;2023-12-20T13:03:24;101174.72;;;13.73;90.01
75359;BME280;64046;51.978;5.934;2023-12-20T13:05:55;101172.78;;;13.59;90.52
75359;BME280;64046;51.978;5.934;2023-12-20T13:08:28;101169.44;;;13.73;90.16
75359;BME280;64046;51.978;5.934;2023-12-20T13:11:00;101153.66;;;13.73;90.28
75359;BME280;64046;51.978;5.934;2023-12-20T13:13:30;101145.44;;;13.61;90.19
75359;BME280;64046;51.978;5.934;2023-12-20T13:15:59;101140.69;;;13.68;90.16
75359;BME280;64046;51.978;5.934;2023-12-20T13:18:32;101139.06;;;13.83;89.60